Prospect, Pennsylvania
Current Conditions -  °F | °C
As of 5:15 AM on Thursday 23 Oct 2014 (Local Time) from KBTP Reporting Station
Overcast Overcast  
Wind Chill: 45°   Ceiling: 1500
Heat Index: 45°   Visibility: 10mi
Dew Point: 39°   Wind: 3mph
Humidity: 81%   Direction: 310°NW
Pressure: 30.14"   Gusts: NA
Location:  40.9°N, 80.05°W
Report Text: KBTP 230915Z AUTO 31003KT 10SM BKN015 OVC020 07/04 A3014 RMK AO1
Loading
Personal Weather Stations






























Interactive Weather Map
Tropical Storm Tracking
New forecast layout! Learn more

10-Day Weather Forecast

Advertisements
Track Severe Weather on mobile